createdAt,value
2022-07-25T00:00:30.597Z,99.90
2022-07-25T00:02:58.692Z,99.90
2022-07-25T00:05:28.615Z,99.90
2022-07-25T00:07:56.743Z,99.90
2022-07-25T00:10:25.242Z,99.90
2022-07-25T00:12:53.189Z,99.90
2022-07-25T00:15:21.216Z,99.90
2022-07-25T00:17:49.223Z,99.90
2022-07-25T00:20:17.184Z,99.90
2022-07-25T00:22:46.696Z,99.90
2022-07-25T00:25:14.934Z,99.90
2022-07-25T00:27:43.004Z,99.90
2022-07-25T00:30:11.883Z,99.90
2022-07-25T00:32:39.926Z,99.90
2022-07-25T00:35:08.264Z,99.90
2022-07-25T00:37:36.615Z,99.90
2022-07-25T00:40:06.729Z,99.90
2022-07-25T00:42:34.964Z,99.90
2022-07-25T00:45:03.034Z,99.90
2022-07-25T00:47:31.475Z,99.90
2022-07-25T00:49:59.914Z,99.90
2022-07-25T00:52:28.101Z,99.90
2022-07-25T00:54:57.001Z,99.90
2022-07-25T00:57:26.521Z,99.90
2022-07-25T00:59:54.542Z,99.90
2022-07-25T01:02:22.612Z,99.90
2022-07-25T01:04:50.626Z,99.90
2022-07-25T01:07:19.264Z,99.90
2022-07-25T01:09:47.851Z,99.90
2022-07-25T01:12:15.945Z,99.90
2022-07-25T01:14:45.547Z,99.90
2022-07-25T01:17:13.852Z,99.90
2022-07-25T01:19:42.139Z,99.90
2022-07-25T01:22:11.581Z,99.90
2022-07-25T01:24:40.817Z,99.90
2022-07-25T01:27:08.949Z,99.90
2022-07-25T01:29:45.386Z,99.90
2022-07-25T01:32:13.704Z,99.90
2022-07-25T01:34:41.712Z,99.90
2022-07-25T01:37:11.293Z,99.90
2022-07-25T01:39:39.383Z,99.90
2022-07-25T01:42:08.116Z,99.90
2022-07-25T01:44:36.111Z,99.90
2022-07-25T01:47:04.296Z,99.90
2022-07-25T01:49:32.539Z,99.90
2022-07-25T01:52:01.428Z,99.90
2022-07-25T01:54:30.951Z,99.90
2022-07-25T01:57:00.193Z,99.90
2022-07-25T01:59:29.139Z,99.90
2022-07-25T02:01:57.277Z,99.90
2022-07-25T02:04:25.483Z,99.90
2022-07-25T02:06:53.626Z,99.90
2022-07-25T02:09:21.708Z,99.90
2022-07-25T02:11:51.179Z,99.90
2022-07-25T02:14:19.147Z,99.90
2022-07-25T02:16:47.211Z,99.90
2022-07-25T02:19:15.291Z,99.90
2022-07-25T02:21:44.306Z,99.90
2022-07-25T02:24:12.919Z,99.90
2022-07-25T02:26:40.939Z,99.90
2022-07-25T02:29:10.336Z,99.90
2022-07-25T02:31:38.608Z,99.90
2022-07-25T02:34:07.138Z,99.90
2022-07-25T02:36:35.434Z,99.90
2022-07-25T02:39:04.731Z,99.90
2022-07-25T02:41:32.823Z,99.90
2022-07-25T02:44:00.761Z,99.90
2022-07-25T02:46:30.391Z,99.90
2022-07-25T02:48:59.145Z,99.90
2022-07-25T02:51:27.563Z,99.90
2022-07-25T02:53:57.708Z,99.90
2022-07-25T02:56:29.641Z,99.90
2022-07-25T02:58:58.475Z,99.90
2022-07-25T03:01:27.123Z,99.90
2022-07-25T03:03:56.693Z,99.90
2022-07-25T03:06:24.765Z,99.90
2022-07-25T03:08:52.940Z,99.90
2022-07-25T03:11:22.283Z,99.90
2022-07-25T03:13:50.446Z,99.90
2022-07-25T03:16:18.549Z,99.90
2022-07-25T03:18:47.067Z,99.90
2022-07-25T03:21:16.597Z,99.90
2022-07-25T03:23:49.054Z,99.90
2022-07-25T03:26:20.070Z,99.90
2022-07-25T03:28:48.053Z,99.90
2022-07-25T03:31:16.189Z,99.90
2022-07-25T03:33:44.169Z,99.90
2022-07-25T03:36:12.544Z,99.90
2022-07-25T03:38:41.980Z,99.90
2022-07-25T03:41:09.974Z,99.90
2022-07-25T03:43:38.534Z,99.90
2022-07-25T03:46:06.831Z,99.90
2022-07-25T03:48:35.027Z,99.90
2022-07-25T03:51:06.846Z,99.90
2022-07-25T03:53:55.510Z,99.90
2022-07-25T03:56:24.984Z,99.90
2022-07-25T03:58:53.090Z,99.90
2022-07-25T04:01:21.962Z,99.90
2022-07-25T04:03:50.183Z,99.90
2022-07-25T04:06:18.767Z,99.90
2022-07-25T04:08:46.853Z,99.90
2022-07-25T04:11:14.953Z,99.90
2022-07-25T04:13:44.557Z,99.90
2022-07-25T04:16:16.867Z,99.90
2022-07-25T04:18:51.689Z,99.90
2022-07-25T04:21:19.880Z,99.90
2022-07-25T04:23:48.023Z,99.90
2022-07-25T04:26:16.562Z,99.90
2022-07-25T04:28:46.142Z,99.90
2022-07-25T04:31:14.171Z,99.90
2022-07-25T04:33:42.869Z,99.90
2022-07-25T04:36:11.505Z,99.90
2022-07-25T04:38:39.660Z,99.90
2022-07-25T04:41:07.801Z,99.90
2022-07-25T04:43:35.922Z,99.90
2022-07-25T04:46:05.397Z,99.90
2022-07-25T04:48:33.616Z,99.90
2022-07-25T04:51:01.719Z,99.90
2022-07-25T04:53:29.946Z,99.90
2022-07-25T04:55:58.058Z,99.90
2022-07-25T04:58:26.235Z,99.90
2022-07-25T05:00:54.389Z,99.90
2022-07-25T05:03:23.868Z,99.90
2022-07-25T05:05:51.970Z,99.90
2022-07-25T05:08:19.989Z,99.90
2022-07-25T05:10:48.040Z,99.90
2022-07-25T05:13:16.400Z,99.90
2022-07-25T05:15:44.487Z,99.90
2022-07-25T05:18:12.450Z,99.90
2022-07-25T05:20:42.457Z,99.90
2022-07-25T05:23:10.529Z,99.90
2022-07-25T05:25:38.637Z,99.90
2022-07-25T05:28:06.771Z,99.90
2022-07-25T05:30:39.611Z,99.90
2022-07-25T05:33:07.967Z,99.90
2022-07-25T05:35:36.269Z,99.90
2022-07-25T05:38:06.598Z,99.90
2022-07-25T05:40:34.711Z,99.90
2022-07-25T05:43:03.709Z,99.90
2022-07-25T05:45:32.683Z,99.90
2022-07-25T05:48:01.002Z,99.90
2022-07-25T05:50:29.267Z,99.90
2022-07-25T05:52:57.322Z,99.90
2022-07-25T05:55:26.535Z,99.90
2022-07-25T05:57:54.666Z,99.90
2022-07-25T06:00:22.549Z,99.90
2022-07-25T06:02:50.954Z,99.90
2022-07-25T06:05:19.088Z,99.90
2022-07-25T06:07:47.130Z,99.90
2022-07-25T06:10:15.060Z,99.90
2022-07-25T06:12:44.698Z,99.90
2022-07-25T06:15:22.165Z,99.30
2022-07-25T06:17:54.803Z,99.90
2022-07-25T06:20:23.210Z,99.30
2022-07-25T06:22:51.227Z,99.60
2022-07-25T06:25:19.646Z,99.90
2022-07-25T06:27:49.029Z,98.20
2022-07-25T06:30:20.205Z,98.20
2022-07-25T06:32:48.844Z,98.10
2022-07-25T06:35:18.240Z,96.80
2022-07-25T06:37:46.414Z,96.50
2022-07-25T06:40:14.850Z,96.40
2022-07-25T06:42:45.713Z,95.20
2022-07-25T06:45:16.611Z,95.50
2022-07-25T06:47:45.972Z,96.40
2022-07-25T06:50:16.312Z,95.20
2022-07-25T06:52:44.664Z,95.10
2022-07-25T06:55:13.933Z,96.60
2022-07-25T06:57:42.194Z,95.40
2022-07-25T07:00:12.416Z,93.70
2022-07-25T07:02:56.442Z,94.20
2022-07-25T07:05:27.908Z,93.40
2022-07-25T07:07:56.082Z,94.60
2022-07-25T07:10:24.871Z,94.80
2022-07-25T07:13:03.551Z,92.40
2022-07-25T07:15:33.825Z,89.70
2022-07-25T07:18:03.140Z,90.70
2022-07-25T07:20:31.725Z,88.20
2022-07-25T07:22:59.772Z,88.10
2022-07-25T07:25:28.548Z,86.00
2022-07-25T07:27:56.598Z,84.10
2022-07-25T07:30:37.604Z,87.20
2022-07-25T07:33:14.057Z,85.40
2022-07-25T07:35:44.607Z,83.80
2022-07-25T07:38:12.948Z,83.10
2022-07-25T07:40:40.929Z,80.10
2022-07-25T07:43:09.075Z,79.50
2022-07-25T07:45:37.093Z,80.50
2022-07-25T07:48:05.410Z,82.30
2022-07-25T07:50:35.258Z,82.20
2022-07-25T07:53:03.718Z,79.20
2022-07-25T07:55:48.208Z,80.00
2022-07-25T07:58:17.991Z,80.80
2022-07-25T08:00:47.815Z,81.90
2022-07-25T08:03:20.520Z,79.60
2022-07-25T08:05:51.958Z,78.40
2022-07-25T08:08:20.377Z,77.20
2022-07-25T08:10:49.624Z,77.70
2022-07-25T08:13:19.804Z,75.10
2022-07-25T08:15:49.678Z,74.10
2022-07-25T08:18:18.958Z,75.00
2022-07-25T08:20:47.213Z,71.20
2022-07-25T08:23:16.908Z,73.80
2022-07-25T08:25:45.384Z,74.60
2022-07-25T08:28:13.795Z,72.60
2022-07-25T08:30:42.480Z,72.30
2022-07-25T08:33:13.607Z,68.90
2022-07-25T08:35:42.176Z,70.30
2022-07-25T08:38:11.796Z,68.60
2022-07-25T08:40:41.493Z,68.60
2022-07-25T08:43:13.100Z,68.70
2022-07-25T08:45:45.266Z,66.10
2022-07-25T08:48:13.434Z,68.30
2022-07-25T08:50:42.128Z,68.40
2022-07-25T08:53:32.064Z,65.90
2022-07-25T08:55:59.984Z,65.50
2022-07-25T08:58:27.900Z,62.50
2022-07-25T09:00:56.034Z,65.30
2022-07-25T09:03:24.365Z,65.20
2022-07-25T09:05:52.636Z,65.50
2022-07-25T09:08:20.790Z,62.20
2022-07-25T09:10:51.108Z,63.40
2022-07-25T09:13:22.330Z,62.70
2022-07-25T09:15:51.826Z,61.80
2022-07-25T09:18:23.790Z,61.70
2022-07-25T09:20:53.591Z,60.90
2022-07-25T09:23:30.979Z,63.70
2022-07-25T09:26:06.285Z,61.70
2022-07-25T09:28:42.365Z,59.20
2022-07-25T09:31:11.183Z,60.00
2022-07-25T09:33:47.971Z,62.50
2022-07-25T09:36:17.012Z,62.90
2022-07-25T09:38:53.475Z,61.20
2022-07-25T09:41:21.561Z,58.00
2022-07-25T09:43:50.990Z,57.90
2022-07-25T09:46:19.133Z,58.80
2022-07-25T09:48:57.449Z,59.60
2022-07-25T09:51:26.412Z,59.10
2022-07-25T09:53:54.634Z,60.30
2022-07-25T09:56:22.605Z,60.60
2022-07-25T09:58:52.928Z,60.50
2022-07-25T10:01:29.203Z,59.70
2022-07-25T10:04:09.418Z,58.80
2022-07-25T10:06:46.640Z,57.60
2022-07-25T10:09:15.122Z,59.10
2022-07-25T10:12:03.539Z,57.50
2022-07-25T10:14:33.782Z,56.40
2022-07-25T10:17:02.159Z,57.90
2022-07-25T10:19:50.210Z,58.10
2022-07-25T10:22:34.390Z,57.90
2022-07-25T10:25:16.502Z,57.60
2022-07-25T10:27:48.887Z,55.70
2022-07-25T10:30:26.712Z,54.90
2022-07-25T10:32:59.245Z,58.40
2022-07-25T10:35:28.175Z,57.00
2022-07-25T10:37:57.713Z,54.70
2022-07-25T10:40:36.769Z,57.00
2022-07-25T10:43:09.902Z,56.40
2022-07-25T10:45:50.479Z,56.80
2022-07-25T10:48:25.007Z,56.70
2022-07-25T10:50:59.751Z,55.20
2022-07-25T10:53:36.251Z,56.10
2022-07-25T10:56:07.295Z,54.90
2022-07-25T10:58:50.977Z,52.90
2022-07-25T11:01:26.095Z,53.00
2022-07-25T11:03:55.751Z,54.10
2022-07-25T11:06:36.389Z,52.80
2022-07-25T11:09:06.171Z,53.10
2022-07-25T11:11:36.700Z,55.20
2022-07-25T11:14:05.857Z,54.70
2022-07-25T11:16:35.233Z,54.50
2022-07-25T11:19:03.727Z,52.40
2022-07-25T11:21:32.127Z,52.20
2022-07-25T11:23:59.988Z,51.10
2022-07-25T11:26:27.997Z,52.00
2022-07-25T11:28:56.063Z,52.80
2022-07-25T11:31:24.065Z,53.20
2022-07-25T11:33:53.704Z,52.90
2022-07-25T11:36:21.723Z,50.30
2022-07-25T11:38:50.561Z,50.90
2022-07-25T11:41:29.492Z,50.40
2022-07-25T11:43:58.004Z,49.70
2022-07-25T11:46:26.152Z,48.50
2022-07-25T11:49:06.490Z,50.80
2022-07-25T11:51:38.515Z,50.00
2022-07-25T11:54:10.490Z,51.90
2022-07-25T11:56:42.934Z,51.30
2022-07-25T11:59:12.202Z,51.00
2022-07-25T12:01:42.228Z,52.00
2022-07-25T12:04:16.618Z,50.90
2022-07-25T12:06:46.297Z,48.80
2022-07-25T12:09:19.048Z,51.20
2022-07-25T12:11:50.080Z,49.70
2022-07-25T12:14:18.666Z,48.70
2022-07-25T12:16:46.907Z,48.90
2022-07-25T12:19:23.371Z,50.20
2022-07-25T12:21:51.469Z,48.60
2022-07-25T12:24:19.514Z,49.20
2022-07-25T12:26:47.420Z,48.30
2022-07-25T12:29:15.423Z,49.70
2022-07-25T12:31:43.356Z,48.20
2022-07-25T12:34:11.322Z,48.10
2022-07-25T12:36:44.220Z,46.80
2022-07-25T12:39:13.057Z,46.50
2022-07-25T12:41:42.815Z,46.80
2022-07-25T12:44:11.269Z,46.70
2022-07-25T12:46:45.836Z,47.20
2022-07-25T12:49:17.319Z,46.20
2022-07-25T12:51:46.911Z,45.10
2022-07-25T12:54:21.642Z,46.30
2022-07-25T12:56:50.328Z,44.90
2022-07-25T12:59:18.284Z,44.90
2022-07-25T13:01:46.614Z,44.30
2022-07-25T13:04:15.098Z,44.50
2022-07-25T13:06:43.282Z,45.10
2022-07-25T13:09:13.160Z,44.20
2022-07-25T13:11:42.406Z,44.60
2022-07-25T13:14:10.873Z,45.50
2022-07-25T13:16:39.148Z,44.70
2022-07-25T13:19:08.974Z,44.20
2022-07-25T13:21:37.919Z,45.20
2022-07-25T13:24:07.666Z,45.50
2022-07-25T13:26:38.637Z,45.10
2022-07-25T13:29:08.674Z,45.50
2022-07-25T13:31:38.488Z,46.50
2022-07-25T13:34:07.486Z,45.10
2022-07-25T13:36:36.543Z,45.70
2022-07-25T13:39:05.879Z,46.50
2022-07-25T13:41:34.503Z,46.50
2022-07-25T13:44:04.152Z,44.30
2022-07-25T13:46:33.331Z,43.20
2022-07-25T13:49:01.684Z,43.80
2022-07-25T13:51:29.937Z,42.30
2022-07-25T13:53:57.978Z,42.10
2022-07-25T13:56:26.260Z,42.60
2022-07-25T13:58:54.363Z,42.30
2022-07-25T14:01:23.939Z,43.10
2022-07-25T14:03:51.997Z,42.40
2022-07-25T14:06:20.159Z,42.30
2022-07-25T14:08:48.131Z,42.30
2022-07-25T14:11:16.035Z,42.70
2022-07-25T14:13:45.324Z,43.00
2022-07-25T14:16:16.553Z,42.50
2022-07-25T14:18:46.260Z,40.80
2022-07-25T14:21:14.230Z,41.10
2022-07-25T14:23:42.367Z,40.40
2022-07-25T14:26:10.442Z,42.60
2022-07-25T14:28:38.329Z,42.10
2022-07-25T14:31:06.410Z,42.00
2022-07-25T14:33:37.945Z,42.70
2022-07-25T14:36:08.556Z,42.20
2022-07-25T14:38:36.819Z,43.30
2022-07-25T14:41:09.206Z,43.90
2022-07-25T14:43:40.779Z,43.70
2022-07-25T14:46:09.134Z,43.40
2022-07-25T14:48:38.164Z,44.30
2022-07-25T14:51:08.363Z,44.90
2022-07-25T14:53:36.578Z,44.40
2022-07-25T14:56:05.918Z,44.60
2022-07-25T14:58:35.028Z,44.80
2022-07-25T15:01:03.076Z,45.70
2022-07-25T15:03:31.113Z,46.90
2022-07-25T15:05:59.257Z,46.20
2022-07-25T15:08:29.233Z,45.90
2022-07-25T15:10:57.216Z,47.00
2022-07-25T15:13:32.857Z,45.40
2022-07-25T15:16:01.760Z,47.30
2022-07-25T15:18:30.269Z,45.60
2022-07-25T15:20:58.933Z,47.80
2022-07-25T15:23:30.476Z,46.00
2022-07-25T15:26:02.318Z,47.70
2022-07-25T15:28:32.082Z,48.70
2022-07-25T15:31:00.352Z,49.80
2022-07-25T15:33:28.403Z,49.00
2022-07-25T15:35:56.518Z,49.20
2022-07-25T15:38:24.996Z,46.50
2022-07-25T15:40:54.415Z,47.00
2022-07-25T15:43:22.382Z,47.10
2022-07-25T15:45:50.563Z,46.60
2022-07-25T15:48:19.280Z,44.30
2022-07-25T15:50:51.721Z,44.40
2022-07-25T15:53:20.208Z,44.60
2022-07-25T15:55:48.612Z,42.80
2022-07-25T15:58:18.409Z,42.90
2022-07-25T16:00:46.648Z,43.50
2022-07-25T16:03:15.012Z,42.20
2022-07-25T16:05:44.891Z,43.20
2022-07-25T16:08:12.924Z,43.20
2022-07-25T16:10:40.860Z,43.40
2022-07-25T16:13:08.831Z,44.40
2022-07-25T16:15:38.220Z,43.50
2022-07-25T16:18:06.650Z,43.10
2022-07-25T16:20:34.705Z,44.00
2022-07-25T16:23:03.038Z,44.30
2022-07-25T16:25:31.637Z,45.40
2022-07-25T16:28:00.634Z,47.50
2022-07-25T16:30:29.866Z,47.30
2022-07-25T16:32:59.408Z,46.20
2022-07-25T16:35:27.439Z,46.00
2022-07-25T16:37:55.439Z,46.80
2022-07-25T16:40:27.349Z,47.10
2022-07-25T16:42:59.807Z,48.00
2022-07-25T16:45:28.591Z,50.30
2022-07-25T16:47:57.910Z,51.70
2022-07-25T16:50:26.027Z,52.50
2022-07-25T16:52:54.975Z,53.50
2022-07-25T16:55:22.993Z,54.80
2022-07-25T16:57:50.893Z,55.10
2022-07-25T17:00:20.186Z,55.30
2022-07-25T17:02:48.180Z,56.90
2022-07-25T17:05:17.755Z,58.10
2022-07-25T17:07:59.299Z,58.60
2022-07-25T17:10:32.363Z,59.50
2022-07-25T17:13:00.477Z,61.80
2022-07-25T17:15:28.566Z,63.60
2022-07-25T17:17:56.756Z,65.70
2022-07-25T17:20:26.493Z,66.70
2022-07-25T17:22:54.706Z,68.30
2022-07-25T17:25:22.680Z,69.60
2022-07-25T17:27:50.854Z,70.90
2022-07-25T17:30:18.917Z,73.10
2022-07-25T17:32:47.206Z,77.00
2022-07-25T17:35:15.307Z,78.60
2022-07-25T17:37:44.851Z,74.70
2022-07-25T17:40:13.275Z,76.90
2022-07-25T17:42:45.036Z,80.60
2022-07-25T17:45:13.490Z,83.30
2022-07-25T17:47:41.615Z,85.30
2022-07-25T17:50:10.713Z,88.90
2022-07-25T17:52:38.871Z,90.90
2022-07-25T17:55:09.042Z,93.50
2022-07-25T17:57:37.928Z,99.90
2022-07-25T18:00:07.046Z,99.90
2022-07-25T18:02:35.180Z,99.90
2022-07-25T18:05:03.726Z,99.90
2022-07-25T18:07:33.326Z,99.90
2022-07-25T18:10:02.101Z,99.90
2022-07-25T18:12:39.353Z,99.90
2022-07-25T18:15:13.084Z,99.90
2022-07-25T18:17:42.821Z,99.90
2022-07-25T18:20:11.993Z,99.90
2022-07-25T18:22:41.181Z,99.90
2022-07-25T18:25:11.290Z,99.90
2022-07-25T18:27:42.251Z,99.90
2022-07-25T18:30:11.665Z,99.90
2022-07-25T18:32:40.624Z,99.90
2022-07-25T18:35:13.531Z,99.90
2022-07-25T18:37:50.844Z,99.90
2022-07-25T18:40:19.688Z,99.90
2022-07-25T18:42:49.382Z,99.90
2022-07-25T18:45:17.551Z,99.90
2022-07-25T18:47:46.843Z,99.90
2022-07-25T18:50:15.140Z,99.90
2022-07-25T18:52:43.216Z,99.90
2022-07-25T18:55:11.603Z,99.90
2022-07-25T18:57:39.764Z,99.90
2022-07-25T19:00:10.907Z,99.90
2022-07-25T19:02:39.118Z,99.90
2022-07-25T19:05:08.657Z,99.90
2022-07-25T19:07:37.102Z,99.90
2022-07-25T19:10:05.939Z,99.90
2022-07-25T19:12:34.164Z,99.90
2022-07-25T19:15:02.159Z,99.90
2022-07-25T19:17:32.847Z,99.90
2022-07-25T19:20:02.117Z,99.90
2022-07-25T19:22:30.099Z,99.90
2022-07-25T19:24:58.203Z,99.90
2022-07-25T19:27:27.368Z,99.90
2022-07-25T19:29:57.138Z,99.90
2022-07-25T19:32:26.267Z,99.90
2022-07-25T19:34:55.767Z,99.90
2022-07-25T19:37:24.099Z,99.90
2022-07-25T19:39:53.297Z,99.90
2022-07-25T19:42:21.836Z,99.90
2022-07-25T19:45:04.337Z,99.90
2022-07-25T19:47:32.937Z,99.90
2022-07-25T19:50:21.390Z,99.90
2022-07-25T19:52:49.662Z,99.90
2022-07-25T19:55:17.977Z,99.90
2022-07-25T19:57:46.137Z,99.90
2022-07-25T20:00:15.086Z,99.90
2022-07-25T20:02:44.932Z,99.90
2022-07-25T20:05:14.657Z,99.90
2022-07-25T20:07:42.762Z,99.90
2022-07-25T20:10:11.404Z,99.90
2022-07-25T20:12:41.247Z,99.90
2022-07-25T20:15:09.495Z,99.90
2022-07-25T20:17:37.539Z,99.90
2022-07-25T20:20:06.528Z,99.90
2022-07-25T20:22:37.598Z,99.90
2022-07-25T20:25:06.879Z,99.90
2022-07-25T20:27:34.841Z,99.90
2022-07-25T20:30:03.934Z,99.90
2022-07-25T20:32:32.348Z,99.90
2022-07-25T20:35:00.412Z,99.90
2022-07-25T20:37:28.522Z,99.90
2022-07-25T20:39:59.695Z,99.90
2022-07-25T20:42:35.142Z,99.90
2022-07-25T20:45:03.111Z,99.90
2022-07-25T20:47:31.202Z,99.90
2022-07-25T20:49:59.278Z,99.90
2022-07-25T20:52:28.243Z,99.90
2022-07-25T20:54:57.725Z,99.90
2022-07-25T20:57:26.046Z,99.90
2022-07-25T20:59:54.164Z,99.90
2022-07-25T21:02:22.310Z,99.90
2022-07-25T21:04:50.487Z,99.90
2022-07-25T21:07:19.250Z,99.90
2022-07-25T21:09:47.502Z,99.90
2022-07-25T21:12:17.281Z,99.90
2022-07-25T21:14:45.389Z,99.90
2022-07-25T21:17:13.619Z,99.90
2022-07-25T21:19:41.610Z,99.90
2022-07-25T21:22:09.857Z,99.90
2022-07-25T21:24:38.168Z,99.90
2022-07-25T21:27:06.384Z,99.90
2022-07-25T21:29:36.129Z,99.90
2022-07-25T21:32:04.976Z,99.90
2022-07-25T21:34:33.240Z,99.90
2022-07-25T21:37:01.772Z,99.90
2022-07-25T21:39:30.145Z,99.90
2022-07-25T21:41:58.639Z,99.90
2022-07-25T21:44:27.039Z,99.90
2022-07-25T21:46:56.607Z,99.90
2022-07-25T21:49:42.709Z,99.90
2022-07-25T21:52:13.600Z,99.90
2022-07-25T21:54:42.313Z,99.90
2022-07-25T21:57:13.350Z,99.90
2022-07-25T21:59:42.383Z,99.90
2022-07-25T22:02:12.461Z,99.90
2022-07-25T22:04:42.134Z,99.90
2022-07-25T22:07:10.554Z,99.90
2022-07-25T22:09:38.926Z,99.90
2022-07-25T22:12:08.258Z,99.90
2022-07-25T22:14:37.684Z,99.90
2022-07-25T22:17:06.044Z,99.90
2022-07-25T22:19:35.852Z,99.90
2022-07-25T22:22:05.957Z,99.90
2022-07-25T22:24:34.742Z,99.90
2022-07-25T22:27:03.098Z,99.90
2022-07-25T22:29:31.300Z,99.90
2022-07-25T22:32:00.112Z,99.90
2022-07-25T22:34:28.758Z,99.90
2022-07-25T22:36:58.465Z,99.90
2022-07-25T22:39:26.890Z,99.90
2022-07-25T22:41:57.169Z,99.90
2022-07-25T22:44:25.489Z,99.90
2022-07-25T22:46:53.746Z,99.90
2022-07-25T22:49:23.313Z,99.90
2022-07-25T22:51:51.734Z,99.90
2022-07-25T22:54:21.528Z,99.90
2022-07-25T22:56:49.842Z,99.90
2022-07-25T22:59:20.114Z,99.90
2022-07-25T23:01:48.317Z,99.90
2022-07-25T23:04:16.629Z,99.90
2022-07-25T23:06:45.109Z,99.90
2022-07-25T23:09:14.506Z,99.90
2022-07-25T23:11:44.166Z,99.90
2022-07-25T23:14:12.802Z,99.90
2022-07-25T23:16:41.278Z,99.90
2022-07-25T23:19:10.012Z,99.90
2022-07-25T23:21:39.067Z,99.90
2022-07-25T23:24:07.852Z,99.90
2022-07-25T23:26:36.120Z,99.90
2022-07-25T23:29:06.074Z,99.90
2022-07-25T23:31:40.565Z,99.90
2022-07-25T23:34:39.423Z,99.90
2022-07-25T23:37:40.124Z,99.90
2022-07-25T23:40:44.679Z,99.90
2022-07-25T23:43:54.417Z,99.90
2022-07-25T23:46:09.084Z,99.90
2022-07-25T23:48:37.113Z,99.90
2022-07-25T23:51:06.724Z,99.90
2022-07-25T23:53:34.861Z,99.90
2022-07-25T23:56:03.001Z,99.90
2022-07-25T23:58:31.001Z,99.90
